createdAt,value
2019-01-21T00:02:33.567Z,49.63
2019-01-21T00:07:39.584Z,44.30
2019-01-21T00:12:45.737Z,48.57
2019-01-21T00:17:51.714Z,46.68
2019-01-21T00:22:57.494Z,44.60
2019-01-21T00:28:03.557Z,47.00
2019-01-21T00:33:09.315Z,56.30
2019-01-21T00:38:15.233Z,44.90
2019-01-21T00:43:21.070Z,47.77
2019-01-21T00:48:27.467Z,51.47
2019-01-21T00:53:33.522Z,43.70
2019-01-21T00:58:39.494Z,46.90
2019-01-21T01:03:45.713Z,41.07
2019-01-21T01:08:51.949Z,49.00
2019-01-21T01:13:58.030Z,48.03
2019-01-21T01:19:04.030Z,68.70
2019-01-21T01:24:09.969Z,52.23
2019-01-21T01:29:15.949Z,39.17
2019-01-21T01:34:21.698Z,44.55
2019-01-21T01:39:27.585Z,45.73
2019-01-21T01:44:33.676Z,45.20
2019-01-21T01:49:39.640Z,43.07
2019-01-21T01:54:45.932Z,41.87
2019-01-21T01:59:52.092Z,42.23
2019-01-21T02:04:57.772Z,33.80
2019-01-21T02:10:04.782Z,32.27
2019-01-21T02:15:12.469Z,29.63
2019-01-21T02:20:19.266Z,32.17
2019-01-21T02:25:43.354Z,25.20
2019-01-21T02:31:01.415Z,25.90
2019-01-21T02:36:18.961Z,29.33
2019-01-21T02:41:29.466Z,28.10
2019-01-21T02:46:45.123Z,29.47
2019-01-21T02:52:09.132Z,32.20
2019-01-21T02:57:18.703Z,25.87
2019-01-21T03:02:35.860Z,28.27
2019-01-21T03:08:00.159Z,29.73
2019-01-21T03:13:25.969Z,26.20
2019-01-21T03:18:50.111Z,23.67
2019-01-21T03:24:14.220Z,23.43
2019-01-21T03:29:32.074Z,22.37
2019-01-21T03:34:53.113Z,28.00
2019-01-21T03:40:08.130Z,23.42
2019-01-21T03:45:32.248Z,23.62
2019-01-21T03:50:57.451Z,27.33
2019-01-21T03:56:06.012Z,24.63
2019-01-21T04:01:24.044Z,27.43
2019-01-21T04:06:36.163Z,30.87
2019-01-21T04:11:47.873Z,25.33
2019-01-21T04:17:03.671Z,24.23
2019-01-21T04:22:14.719Z,25.90
2019-01-21T04:27:27.337Z,22.87
2019-01-21T04:32:48.341Z,27.30
2019-01-21T04:38:03.225Z,25.70
2019-01-21T04:43:12.289Z,27.53
2019-01-21T04:48:37.368Z,29.73
2019-01-21T04:54:02.794Z,22.50
2019-01-21T04:59:15.213Z,22.33
2019-01-21T05:04:24.468Z,20.92
2019-01-21T05:10:11.919Z,18.77
2019-01-21T05:15:56.084Z,21.68
2019-01-21T05:21:20.275Z,25.67
2019-01-21T05:27:02.734Z,23.27
2019-01-21T05:32:21.098Z,23.25
2019-01-21T05:37:43.640Z,24.33
2019-01-21T05:43:03.677Z,24.73
2019-01-21T05:48:24.601Z,21.75
2019-01-21T05:53:45.838Z,23.17
2019-01-21T05:58:55.048Z,25.00
2019-01-21T06:04:29.568Z,22.90
2019-01-21T06:09:41.707Z,17.80
2019-01-21T06:15:22.513Z,24.63
2019-01-21T06:20:42.657Z,26.63
2019-01-21T06:26:30.477Z,25.53
2019-01-21T06:31:44.971Z,21.97
2019-01-21T06:37:18.244Z,23.37
2019-01-21T06:42:30.051Z,25.57
2019-01-21T06:47:57.096Z,26.90
2019-01-21T06:53:18.243Z,91.97
2019-01-21T06:58:30.253Z,42.43
2019-01-21T07:03:56.104Z,39.47
2019-01-21T07:09:14.648Z,31.87
2019-01-21T07:14:44.225Z,29.57
2019-01-21T07:20:02.158Z,26.63
2019-01-21T07:25:20.610Z,25.47
2019-01-21T07:30:59.986Z,27.23
2019-01-21T07:36:33.789Z,27.90
2019-01-21T07:41:52.098Z,28.60
2019-01-21T07:47:15.250Z,30.43
2019-01-21T07:53:04.128Z,28.40
2019-01-21T07:58:31.708Z,26.45
2019-01-21T08:04:00.424Z,31.70
2019-01-21T08:09:15.305Z,27.27
2019-01-21T08:14:40.798Z,28.42
2019-01-21T08:20:03.801Z,30.47
2019-01-21T08:25:23.798Z,26.27
2019-01-21T08:30:41.982Z,29.50
2019-01-21T08:36:10.648Z,25.08
2019-01-21T08:41:28.510Z,47.85
2019-01-21T08:46:52.814Z,72.77
2019-01-21T08:52:13.792Z,30.73
2019-01-21T08:57:41.407Z,26.87
2019-01-21T09:02:54.926Z,25.00
2019-01-21T09:08:25.676Z,30.73
2019-01-21T09:13:38.099Z,33.73
2019-01-21T09:18:53.245Z,32.53
2019-01-21T09:24:34.528Z,26.87
2019-01-21T09:30:06.064Z,25.37
2019-01-21T09:35:36.579Z,24.97
2019-01-21T09:41:18.868Z,28.20
2019-01-21T09:46:28.021Z,33.73
2019-01-21T09:51:33.863Z,29.60
2019-01-21T09:56:41.455Z,32.57
2019-01-21T10:01:47.604Z,22.30
2019-01-21T10:06:56.643Z,40.87
2019-01-21T10:12:28.101Z,37.10
2019-01-21T10:17:52.192Z,29.70
2019-01-21T10:23:17.593Z,31.80
2019-01-21T10:28:35.461Z,33.83
2019-01-21T10:33:59.467Z,73.53
2019-01-21T10:39:37.825Z,26.62
2019-01-21T10:44:53.272Z,34.20
2019-01-21T10:50:14.309Z,22.87
2019-01-21T10:55:44.448Z,26.60
2019-01-21T11:01:08.967Z,22.33
2019-01-21T11:06:32.169Z,24.40
2019-01-21T11:11:57.881Z,32.03
2019-01-21T11:17:29.576Z,33.33
2019-01-21T11:22:49.372Z,27.57
2019-01-21T11:28:01.553Z,26.97
2019-01-21T11:33:34.030Z,32.73
2019-01-21T11:38:50.854Z,25.03
2019-01-21T11:44:24.480Z,31.20
2019-01-21T11:49:42.879Z,27.77
2019-01-21T11:54:57.826Z,34.73
2019-01-21T12:00:16.015Z,30.80
2019-01-21T12:05:34.694Z,35.60
2019-01-21T12:11:06.523Z,32.30
2019-01-21T12:16:44.495Z,24.97
2019-01-21T12:22:27.027Z,31.63
2019-01-21T12:27:44.986Z,23.23
2019-01-21T12:33:09.262Z,32.57
2019-01-21T12:38:41.684Z,30.30
2019-01-21T12:44:02.928Z,28.13
2019-01-21T12:49:23.744Z,34.10
2019-01-21T12:54:40.728Z,48.67
2019-01-21T12:59:55.869Z,32.30
2019-01-21T13:05:07.769Z,36.23
2019-01-21T13:10:29.009Z,32.70
2019-01-21T13:15:59.145Z,33.60
2019-01-21T13:21:43.334Z,38.67
2019-01-21T13:27:07.616Z,35.30
2019-01-21T13:32:22.408Z,41.53
2019-01-21T13:37:46.893Z,30.07
2019-01-21T13:43:02.858Z,32.20
2019-01-21T13:48:17.023Z,34.53
2019-01-21T13:53:38.391Z,30.05
2019-01-21T13:59:13.346Z,33.27
2019-01-21T14:04:40.828Z,42.50
2019-01-21T14:09:58.731Z,71.77
2019-01-21T14:15:27.461Z,35.03
2019-01-21T14:20:45.610Z,109.70
2019-01-21T14:26:08.341Z,89.33
2019-01-21T14:31:19.643Z,53.23
2019-01-21T14:36:32.666Z,90.97
2019-01-21T14:42:18.431Z,95.23
2019-01-21T14:47:52.887Z,58.13
2019-01-21T14:53:19.872Z,62.53
2019-01-21T14:58:45.319Z,73.50
2019-01-21T15:04:16.569Z,48.03
2019-01-21T15:09:44.973Z,41.87
2019-01-21T15:15:12.143Z,76.17
2019-01-21T15:20:21.223Z,75.73
2019-01-21T15:25:30.271Z,65.00
2019-01-21T15:30:45.174Z,52.80
2019-01-21T15:36:11.262Z,41.43
2019-01-21T15:41:29.530Z,51.23
2019-01-21T15:46:53.500Z,162.87
2019-01-21T15:52:11.407Z,125.63
2019-01-21T15:57:21.643Z,84.95
2019-01-21T16:02:36.454Z,48.73
2019-01-21T16:07:47.341Z,46.60
2019-01-21T16:13:05.209Z,57.70
2019-01-21T16:18:17.191Z,75.43
2019-01-21T16:23:41.041Z,63.85
2019-01-21T16:28:53.151Z,94.70
2019-01-21T16:34:12.303Z,114.07
2019-01-21T16:39:27.427Z,71.00
2019-01-21T16:44:33.309Z,64.27
2019-01-21T16:49:39.286Z,91.37
2019-01-21T16:54:45.484Z,107.10
2019-01-21T16:59:51.515Z,76.50
2019-01-21T17:04:57.548Z,85.97
2019-01-21T17:10:03.828Z,110.03
2019-01-21T17:15:11.983Z,65.50
2019-01-21T17:20:21.341Z,63.77
2019-01-21T17:25:27.047Z,64.50
2019-01-21T17:30:32.908Z,72.20
2019-01-21T17:35:39.013Z,126.00
2019-01-21T17:40:45.286Z,348.07
2019-01-21T17:45:51.260Z,289.63
2019-01-21T17:50:57.554Z,118.93
2019-01-21T17:56:03.701Z,77.73
2019-01-21T18:01:09.671Z,72.27
2019-01-21T18:06:15.876Z,50.23
2019-01-21T18:11:22.319Z,85.85
2019-01-21T18:16:28.384Z,62.30
2019-01-21T18:21:39.942Z,84.67
2019-01-21T18:26:41.994Z,161.57
2019-01-21T18:31:47.863Z,65.07
2019-01-21T18:36:53.913Z,62.73
2019-01-21T18:42:00.156Z,222.80
2019-01-21T18:47:06.262Z,166.83
2019-01-21T18:52:12.269Z,100.47
2019-01-21T18:57:18.346Z,112.90
2019-01-21T19:02:24.225Z,108.00
2019-01-21T19:07:30.080Z,91.97
2019-01-21T19:12:36.377Z,98.97
2019-01-21T19:17:42.366Z,163.27
2019-01-21T19:22:48.337Z,82.33
2019-01-21T19:27:54.273Z,67.13
2019-01-21T19:33:00.505Z,96.77
2019-01-21T19:38:06.560Z,80.53
2019-01-21T19:43:12.949Z,151.85
2019-01-21T19:48:19.105Z,65.30
2019-01-21T19:53:26.051Z,86.60
2019-01-21T19:58:32.065Z,90.97
2019-01-21T20:03:38.137Z,98.70
2019-01-21T20:08:44.210Z,77.60
2019-01-21T20:13:51.648Z,102.53
2019-01-21T20:18:57.782Z,85.45
2019-01-21T20:24:05.825Z,104.23
2019-01-21T20:29:11.803Z,109.67
2019-01-21T20:34:17.774Z,79.90
2019-01-21T20:39:23.671Z,92.20
2019-01-21T20:44:29.714Z,79.67
2019-01-21T20:49:35.503Z,65.80
2019-01-21T20:54:41.445Z,59.40
2019-01-21T20:59:47.424Z,71.30
2019-01-21T21:04:53.530Z,79.00
2019-01-21T21:09:59.495Z,76.93
2019-01-21T21:15:22.229Z,70.83
2019-01-21T21:20:28.321Z,76.57
2019-01-21T21:25:34.456Z,147.73
2019-01-21T21:30:40.344Z,96.23
2019-01-21T21:35:46.960Z,81.57
2019-01-21T21:40:54.008Z,81.13
2019-01-21T21:46:01.863Z,75.93
2019-01-21T21:51:08.276Z,72.97
2019-01-21T21:56:14.552Z,77.63
2019-01-21T22:01:24.075Z,83.10
2019-01-21T22:06:28.077Z,67.63
2019-01-21T22:11:34.066Z,67.40
2019-01-21T22:16:40.115Z,126.80
2019-01-21T22:21:46.141Z,88.43
2019-01-21T22:26:51.926Z,67.93
2019-01-21T22:31:57.687Z,71.90
2019-01-21T22:37:03.619Z,86.67
2019-01-21T22:42:09.539Z,115.00
2019-01-21T22:47:15.389Z,69.17
2019-01-21T22:52:21.292Z,93.77
2019-01-21T22:57:27.570Z,90.33
2019-01-21T23:02:34.161Z,68.17
2019-01-21T23:07:40.225Z,73.00
2019-01-21T23:12:46.189Z,68.33
2019-01-21T23:17:52.078Z,64.90
2019-01-21T23:22:58.014Z,77.43
2019-01-21T23:28:05.331Z,119.47
2019-01-21T23:33:11.188Z,68.07
2019-01-21T23:38:17.184Z,71.25
2019-01-21T23:43:23.102Z,74.85
2019-01-21T23:48:29.653Z,71.30
2019-01-21T23:53:35.830Z,71.45
2019-01-21T23:58:42.093Z,82.83
